Time;durP1;ratioP1;P1;durP2;ratioP2;P2;SDS_P1;SDS_P2;PMS_P1;PMS_P2;Temp;Humidity;BMP_temperature;BMP_pressure;BME280_temperature;BME280_humidity;BME280_pressure;Samples;Min_cycle;Max_cycle;Signal;HPM_P1;HPM_P2
2022/07/10 00:02:03;;;;;;;;;;;13.80;99.90;;;;;;4994879;28;19933;-86
2022/07/10 00:04:29;;;;;;;;;;;13.70;99.90;;;;;;4981411;28;20307;-86
2022/07/10 00:06:55;;;;;;;;;;;13.60;99.90;;;;;;4993956;28;20662;-85
2022/07/10 00:09:22;;;;;;;;;;;13.60;99.90;;;;;;4989152;28;19936;-86
2022/07/10 00:11:47;;;;;;;;;;;13.60;99.90;;;;;;5001133;28;20385;-85
2022/07/10 00:14:13;;;;;;;;;;;13.50;99.90;;;;;;4994892;28;20023;-85
2022/07/10 00:16:39;;;;;;;;;;;13.50;99.90;;;;;;5011229;28;20061;-85
2022/07/10 00:19:04;;;;;;;;;;;13.50;99.90;;;;;;4998346;28;19929;-84
2022/07/10 00:21:30;;;;;;;;;;;13.50;99.90;;;;;;4998435;28;20441;-85
2022/07/10 00:23:56;;;;;;;;;;;13.50;99.90;;;;;;5000778;28;19937;-85
2022/07/10 00:26:21;;;;;;;;;;;13.50;99.90;;;;;;4991216;28;19935;-85
2022/07/10 00:28:47;;;;;;;;;;;13.50;99.90;;;;;;4993842;28;20020;-84
2022/07/10 00:31:13;;;;;;;;;;;13.50;99.90;;;;;;5010334;28;19979;-84
2022/07/10 00:33:38;;;;;;;;;;;13.40;99.90;;;;;;4994498;28;20020;-84
2022/07/10 00:36:05;;;;;;;;;;;13.40;99.90;;;;;;4998775;28;19925;-86
2022/07/10 00:38:31;;;;;;;;;;;13.40;99.90;;;;;;4999455;28;19970;-85
2022/07/10 00:40:56;;;;;;;;;;;13.40;99.90;;;;;;4992083;28;20877;-85
2022/07/10 00:43:22;;;;;;;;;;;13.50;99.90;;;;;;4997693;28;19928;-86
2022/07/10 00:45:48;;;;;;;;;;;13.40;99.90;;;;;;5000336;28;19929;-84
2022/07/10 00:48:14;;;;;;;;;;;13.40;99.90;;;;;;4994993;28;19929;-83
2022/07/10 00:50:40;;;;;;;;;;;13.50;99.90;;;;;;4993955;28;20475;-84
2022/07/10 00:53:06;;;;;;;;;;;13.40;99.90;;;;;;4993750;28;19936;-86
2022/07/10 00:55:33;;;;;;;;;;;13.50;99.90;;;;;;4987483;28;21339;-83
2022/07/10 00:57:59;;;;;;;;;;;13.50;99.90;;;;;;5003547;28;19933;-85
2022/07/10 01:00:26;;;;;;;;;;;13.50;99.90;;;;;;4996208;28;19929;-86
2022/07/10 01:02:52;;;;;;;;;;;13.40;99.90;;;;;;4996641;28;20024;-85
2022/07/10 01:05:17;;;;;;;;;;;13.40;99.90;;;;;;4999503;28;20164;-84
2022/07/10 01:07:43;;;;;;;;;;;13.40;99.90;;;;;;4998888;28;19976;-84
2022/07/10 01:10:09;;;;;;;;;;;13.30;99.90;;;;;;5004755;28;19936;-84
2022/07/10 01:12:36;;;;;;;;;;;13.40;99.90;;;;;;4994035;28;19933;-84
2022/07/10 01:15:01;;;;;;;;;;;13.40;99.90;;;;;;4999253;28;21188;-85
2022/07/10 01:17:29;;;;;;;;;;;13.40;99.90;;;;;;5001646;28;20012;-85
2022/07/10 01:19:55;;;;;;;;;;;13.40;99.90;;;;;;4988639;28;21633;-84
2022/07/10 01:25:33;;;;;;;;;;;13.40;99.90;;;;;;4984874;28;20017;-85
2022/07/10 01:27:59;;;;;;;;;;;13.40;99.90;;;;;;4997018;28;20411;-85
2022/07/10 01:30:25;;;;;;;;;;;13.40;99.90;;;;;;5005666;28;19935;-84
2022/07/10 01:32:52;;;;;;;;;;;13.40;99.90;;;;;;5001377;28;20027;-85
2022/07/10 01:35:17;;;;;;;;;;;13.50;99.90;;;;;;4997081;28;19954;-85
2022/07/10 01:37:43;;;;;;;;;;;13.40;99.90;;;;;;5003228;28;19939;-84
2022/07/10 01:40:09;;;;;;;;;;;13.50;99.90;;;;;;5002580;28;20595;-85
2022/07/10 01:42:35;;;;;;;;;;;13.40;99.90;;;;;;5001023;28;19979;-84
2022/07/10 01:45:01;;;;;;;;;;;13.40;99.90;;;;;;4997910;28;19929;-85
2022/07/10 01:47:27;;;;;;;;;;;13.40;99.90;;;;;;4999478;28;20949;-84
2022/07/10 01:49:53;;;;;;;;;;;13.40;99.90;;;;;;4998802;28;19972;-84
2022/07/10 01:52:19;;;;;;;;;;;13.40;99.90;;;;;;4999221;28;20012;-84
2022/07/10 01:54:46;;;;;;;;;;;13.40;99.90;;;;;;4999844;28;19978;-83
2022/07/10 01:57:11;;;;;;;;;;;13.40;99.90;;;;;;4995575;28;19929;-85
2022/07/10 01:59:37;;;;;;;;;;;13.40;99.90;;;;;;4993691;28;19936;-83
2022/07/10 02:02:03;;;;;;;;;;;13.50;99.90;;;;;;4993637;28;19929;-85
2022/07/10 02:04:40;;;;;;;;;;;13.50;99.90;;;;;;4995729;28;19928;-86
2022/07/10 02:07:10;;;;;;;;;;;13.60;99.90;;;;;;4997303;28;20055;-83
2022/07/10 02:09:37;;;;;;;;;;;13.60;99.90;;;;;;4994207;28;19972;-84
2022/07/10 02:12:03;;;;;;;;;;;13.60;99.90;;;;;;4999294;28;19999;-86
2022/07/10 02:14:28;;;;;;;;;;;13.60;99.90;;;;;;5001952;28;20343;-85
2022/07/10 02:16:55;;;;;;;;;;;13.60;99.90;;;;;;4997611;28;19933;-85
2022/07/10 02:19:21;;;;;;;;;;;13.60;99.90;;;;;;5001908;28;20736;-86
2022/07/10 02:21:46;;;;;;;;;;;13.50;99.90;;;;;;5000853;28;19937;-85
2022/07/10 02:24:12;;;;;;;;;;;13.40;99.90;;;;;;4995032;28;19936;-85
2022/07/10 02:26:38;;;;;;;;;;;13.40;99.90;;;;;;4994851;28;19929;-85
2022/07/10 02:29:04;;;;;;;;;;;13.30;99.90;;;;;;4993183;28;19991;-85
2022/07/10 02:31:32;;;;;;;;;;;13.20;99.90;;;;;;5014586;28;20395;-85
2022/07/10 02:33:58;;;;;;;;;;;13.20;99.90;;;;;;4998577;28;19939;-85
2022/07/10 02:36:24;;;;;;;;;;;13.20;99.90;;;;;;4992555;28;19941;-85
2022/07/10 02:38:49;;;;;;;;;;;13.10;99.90;;;;;;5000889;28;20341;-83
2022/07/10 02:41:15;;;;;;;;;;;13.10;99.90;;;;;;4995238;28;20355;-84
2022/07/10 02:43:41;;;;;;;;;;;13.10;99.90;;;;;;4997916;28;19929;-85
2022/07/10 02:46:06;;;;;;;;;;;13.00;99.90;;;;;;4993360;28;19972;-84
2022/07/10 02:48:32;;;;;;;;;;;12.90;99.90;;;;;;4978276;28;19933;-85
2022/07/10 02:50:58;;;;;;;;;;;13.00;99.90;;;;;;4993895;28;20903;-84
2022/07/10 02:53:23;;;;;;;;;;;13.00;99.90;;;;;;4996556;28;19929;-85
2022/07/10 02:55:49;;;;;;;;;;;12.90;99.90;;;;;;4994553;28;19971;-86
2022/07/10 02:58:15;;;;;;;;;;;12.90;99.90;;;;;;4996399;28;20355;-85
2022/07/10 03:00:41;;;;;;;;;;;12.80;99.90;;;;;;4992804;28;19987;-84
2022/07/10 03:03:07;;;;;;;;;;;12.80;99.90;;;;;;4996928;28;20451;-84
2022/07/10 03:05:33;;;;;;;;;;;12.70;99.90;;;;;;4996020;28;20019;-83
2022/07/10 03:07:59;;;;;;;;;;;12.70;99.90;;;;;;4994814;28;19964;-84
2022/07/10 03:10:24;;;;;;;;;;;12.80;99.90;;;;;;4975221;28;20024;-84
2022/07/10 03:12:50;;;;;;;;;;;12.80;99.90;;;;;;4997286;28;20490;-85
2022/07/10 03:15:16;;;;;;;;;;;12.70;99.90;;;;;;4984848;28;19975;-83
2022/07/10 03:17:41;;;;;;;;;;;12.80;99.90;;;;;;4979412;28;20019;-85
2022/07/10 03:20:08;;;;;;;;;;;12.70;99.90;;;;;;5004628;28;19967;-85
2022/07/10 03:22:34;;;;;;;;;;;12.80;99.90;;;;;;4997747;28;20442;-84
2022/07/10 03:25:00;;;;;;;;;;;12.70;99.90;;;;;;4999232;28;19935;-84
2022/07/10 03:27:25;;;;;;;;;;;12.70;99.90;;;;;;5014333;28;19928;-84
2022/07/10 03:29:51;;;;;;;;;;;12.80;99.90;;;;;;5003098;28;19982;-85
2022/07/10 03:32:17;;;;;;;;;;;12.70;99.90;;;;;;4998120;28;19929;-85
2022/07/10 03:34:43;;;;;;;;;;;12.60;99.90;;;;;;4995752;28;20488;-85
2022/07/10 03:37:08;;;;;;;;;;;12.60;99.90;;;;;;4974951;28;19932;-85
2022/07/10 03:39:34;;;;;;;;;;;12.60;99.90;;;;;;4978373;28;19932;-86
2022/07/10 03:42:00;;;;;;;;;;;12.60;99.90;;;;;;4982092;28;20856;-85
2022/07/10 03:44:26;;;;;;;;;;;12.50;99.90;;;;;;4995896;28;19933;-85
2022/07/10 03:46:51;;;;;;;;;;;12.50;99.90;;;;;;4991457;28;19929;-85
2022/07/10 03:49:17;;;;;;;;;;;12.50;99.90;;;;;;4994704;28;19992;-84
2022/07/10 03:51:42;;;;;;;;;;;12.50;99.90;;;;;;5001022;28;19936;-84
2022/07/10 03:54:08;;;;;;;;;;;12.50;99.90;;;;;;4982929;28;19929;-85
2022/07/10 03:59:18;;;;;;;;;;;12.50;99.90;;;;;;5006957;28;19988;-84
2022/07/10 04:01:44;;;;;;;;;;;12.50;99.90;;;;;;4998707;28;19933;-85
2022/07/10 04:04:10;;;;;;;;;;;12.40;99.90;;;;;;4999898;28;19925;-84
2022/07/10 04:06:38;;;;;;;;;;;12.50;99.90;;;;;;5000699;28;19937;-86
2022/07/10 04:09:07;;;;;;;;;;;12.40;99.90;;;;;;5010048;28;19940;-86
2022/07/10 04:11:33;;;;;;;;;;;12.50;99.90;;;;;;5001901;28;19982;-86
2022/07/10 04:13:58;;;;;;;;;;;12.60;99.90;;;;;;5005944;28;20755;-86
2022/07/10 04:16:24;;;;;;;;;;;12.70;99.90;;;;;;5009036;28;19929;-86
2022/07/10 04:18:50;;;;;;;;;;;12.80;99.90;;;;;;5004143;28;19936;-87
2022/07/10 04:21:15;;;;;;;;;;;12.90;99.90;;;;;;5000643;28;20589;-87
2022/07/10 04:23:41;;;;;;;;;;;13.00;99.90;;;;;;5002373;28;20467;-83
2022/07/10 04:26:07;;;;;;;;;;;13.00;99.90;;;;;;5003446;28;19929;-84
2022/07/10 04:28:32;;;;;;;;;;;13.10;99.90;;;;;;5001259;28;19937;-84
2022/07/10 04:30:58;;;;;;;;;;;13.10;99.90;;;;;;5011942;28;20021;-86
2022/07/10 04:33:25;;;;;;;;;;;13.20;99.90;;;;;;5004127;28;20432;-84
2022/07/10 04:35:50;;;;;;;;;;;13.20;99.90;;;;;;4991079;28;19928;-85
2022/07/10 04:38:16;;;;;;;;;;;13.20;99.90;;;;;;5004386;28;19933;-83
2022/07/10 04:40:41;;;;;;;;;;;13.30;99.90;;;;;;4982961;28;20163;-85
2022/07/10 04:43:09;;;;;;;;;;;13.30;99.90;;;;;;5007186;28;19929;-85
2022/07/10 04:45:37;;;;;;;;;;;13.30;99.90;;;;;;5019818;28;19925;-86
2022/07/10 04:48:04;;;;;;;;;;;13.40;99.90;;;;;;5001840;28;19933;-86
2022/07/10 04:50:30;;;;;;;;;;;13.30;99.90;;;;;;4986079;28;19991;-87
2022/07/10 04:52:56;;;;;;;;;;;13.40;99.90;;;;;;5006678;28;20482;-87
2022/07/10 04:55:22;;;;;;;;;;;13.40;99.90;;;;;;4988211;28;20382;-85
2022/07/10 04:57:47;;;;;;;;;;;13.50;99.90;;;;;;5004571;28;19929;-85
2022/07/10 05:00:13;;;;;;;;;;;13.50;99.90;;;;;;5003325;28;19933;-86
2022/07/10 05:02:39;;;;;;;;;;;13.60;99.90;;;;;;4993595;28;20397;-86
2022/07/10 05:05:05;;;;;;;;;;;13.60;99.90;;;;;;4990938;28;19999;-86
2022/07/10 05:07:30;;;;;;;;;;;13.70;99.90;;;;;;5002081;28;19929;-85
2022/07/10 05:09:56;;;;;;;;;;;13.70;99.90;;;;;;5002427;28;20824;-86
2022/07/10 05:12:22;;;;;;;;;;;13.70;99.90;;;;;;4997329;28;20246;-84
2022/07/10 05:14:47;;;;;;;;;;;13.70;99.90;;;;;;5005624;28;19929;-84
2022/07/10 05:17:13;;;;;;;;;;;13.80;99.90;;;;;;4985779;28;19940;-85
2022/07/10 05:19:39;;;;;;;;;;;13.80;99.90;;;;;;5005790;28;19935;-84
2022/07/10 05:22:04;;;;;;;;;;;13.80;99.90;;;;;;5007562;28;20398;-84
2022/07/10 05:24:30;;;;;;;;;;;13.80;99.90;;;;;;5009753;28;19932;-85
2022/07/10 05:26:56;;;;;;;;;;;13.90;99.90;;;;;;5006287;28;19936;-87
2022/07/10 05:29:22;;;;;;;;;;;13.90;99.90;;;;;;5000754;28;20276;-87
2022/07/10 05:31:47;;;;;;;;;;;14.00;99.90;;;;;;4999708;28;19935;-85
2022/07/10 05:34:13;;;;;;;;;;;14.10;99.90;;;;;;5006320;28;20306;-86
2022/07/10 05:36:39;;;;;;;;;;;14.30;99.90;;;;;;4983399;28;20508;-85
2022/07/10 05:39:05;;;;;;;;;;;14.50;99.90;;;;;;4985943;28;19929;-85
2022/07/10 05:41:32;;;;;;;;;;;14.70;99.90;;;;;;5006628;28;20728;-85
2022/07/10 05:43:58;;;;;;;;;;;14.90;99.90;;;;;;5003395;28;20036;-87
2022/07/10 05:46:24;;;;;;;;;;;15.40;99.90;;;;;;5000002;28;20377;-86
2022/07/10 05:48:50;;;;;;;;;;;15.50;99.90;;;;;;5004598;28;20019;-85
2022/07/10 05:51:15;;;;;;;;;;;15.50;99.90;;;;;;5006518;28;19929;-85
2022/07/10 05:53:41;;;;;;;;;;;15.60;99.90;;;;;;5008181;28;20561;-83
2022/07/10 05:56:07;;;;;;;;;;;15.70;99.90;;;;;;5007740;28;19933;-85
2022/07/10 05:58:32;;;;;;;;;;;15.70;99.90;;;;;;5001435;28;20367;-87
2022/07/10 06:00:58;;;;;;;;;;;15.70;99.90;;;;;;4999610;28;19928;-85
2022/07/10 06:03:24;;;;;;;;;;;15.70;99.90;;;;;;4998575;28;20759;-86
2022/07/10 06:05:49;;;;;;;;;;;15.70;99.90;;;;;;5020121;28;19936;-86
2022/07/10 06:08:15;;;;;;;;;;;15.80;99.90;;;;;;5006468;28;20725;-86
2022/07/10 06:10:43;;;;;;;;;;;15.70;99.90;;;;;;5006214;28;19976;-86
2022/07/10 06:13:10;;;;;;;;;;;15.60;99.90;;;;;;5008238;28;19928;-85
2022/07/10 06:15:35;;;;;;;;;;;15.60;99.90;;;;;;4983305;28;20422;-84
2022/07/10 06:18:01;;;;;;;;;;;15.50;99.90;;;;;;4987686;28;19929;-85
2022/07/10 06:20:27;;;;;;;;;;;15.60;99.90;;;;;;5006025;28;19929;-86
2022/07/10 06:22:52;;;;;;;;;;;15.60;99.90;;;;;;5003984;28;19928;-85
2022/07/10 06:25:18;;;;;;;;;;;15.60;99.90;;;;;;5003188;28;20011;-85
2022/07/10 06:27:44;;;;;;;;;;;15.70;99.90;;;;;;4998641;28;19929;-84
2022/07/10 06:30:10;;;;;;;;;;;15.80;99.90;;;;;;5000466;28;20382;-86
2022/07/10 06:32:36;;;;;;;;;;;15.80;99.90;;;;;;5003837;28;19936;-85
2022/07/10 06:35:02;;;;;;;;;;;15.90;99.90;;;;;;5003593;28;20309;-85
2022/07/10 06:37:28;;;;;;;;;;;15.80;99.90;;;;;;4998674;28;19936;-83
2022/07/10 06:39:54;;;;;;;;;;;16.00;99.90;;;;;;4996302;28;19929;-85
2022/07/10 06:42:19;;;;;;;;;;;16.10;99.90;;;;;;5006405;28;19987;-83
2022/07/10 06:44:45;;;;;;;;;;;16.00;99.90;;;;;;5005795;28;20454;-85
2022/07/10 06:49:59;;;;;;;;;;;16.00;99.90;;;;;;5004217;28;19929;-83
2022/07/10 06:52:25;;;;;;;;;;;15.90;99.90;;;;;;5004901;28;19940;-84
2022/07/10 06:54:52;;;;;;;;;;;15.80;99.90;;;;;;5003176;28;19928;-87
2022/07/10 06:57:20;;;;;;;;;;;15.90;99.90;;;;;;5001785;28;19936;-84
2022/07/10 06:59:46;;;;;;;;;;;15.80;99.90;;;;;;5001838;28;19929;-87
2022/07/10 07:02:12;;;;;;;;;;;15.80;99.90;;;;;;4984132;28;19940;-85
2022/07/10 07:04:38;;;;;;;;;;;15.80;99.90;;;;;;4998324;28;19943;-85
2022/07/10 07:07:03;;;;;;;;;;;15.90;99.90;;;;;;4978335;28;20888;-88
2022/07/10 07:09:29;;;;;;;;;;;16.00;99.90;;;;;;5001582;28;20544;-86
2022/07/10 07:11:55;;;;;;;;;;;16.10;99.90;;;;;;4992126;28;19978;-84
2022/07/10 07:14:21;;;;;;;;;;;16.20;99.90;;;;;;5004434;28;20027;-85
2022/07/10 07:16:57;;;;;;;;;;;16.20;99.90;;;;;;4988548;28;19928;-85
2022/07/10 07:19:30;;;;;;;;;;;16.30;99.90;;;;;;5000333;28;19933;-86
2022/07/10 07:24:41;;;;;;;;;;;16.40;99.90;;;;;;5003451;28;19935;-87
2022/07/10 07:27:08;;;;;;;;;;;16.50;99.90;;;;;;5000299;28;19990;-85
2022/07/10 07:29:34;;;;;;;;;;;16.50;99.90;;;;;;4999925;28;19933;-85
2022/07/10 07:32:00;;;;;;;;;;;16.40;99.90;;;;;;5003652;28;19929;-85
2022/07/10 07:34:26;;;;;;;;;;;16.50;99.90;;;;;;4985883;28;19929;-86
2022/07/10 07:36:51;;;;;;;;;;;16.60;99.90;;;;;;5005114;28;19929;-86
2022/07/10 07:39:17;;;;;;;;;;;16.70;99.90;;;;;;4986032;28;19949;-87
2022/07/10 07:41:43;;;;;;;;;;;16.90;99.90;;;;;;4996597;28;19937;-86
2022/07/10 07:44:08;;;;;;;;;;;16.80;99.90;;;;;;5004750;28;19936;-86
2022/07/10 07:46:34;;;;;;;;;;;17.20;99.90;;;;;;5010313;28;19933;-85
2022/07/10 07:49:00;;;;;;;;;;;17.40;99.90;;;;;;5008966;28;19936;-86
2022/07/10 07:51:26;;;;;;;;;;;17.40;99.90;;;;;;5007376;28;19929;-85
2022/07/10 07:53:51;;;;;;;;;;;17.60;99.90;;;;;;5008164;28;19956;-85
2022/07/10 07:56:17;;;;;;;;;;;17.70;99.90;;;;;;5005697;28;20023;-87
2022/07/10 07:58:43;;;;;;;;;;;17.80;99.90;;;;;;5011228;28;19928;-87
2022/07/10 08:01:08;;;;;;;;;;;17.60;99.90;;;;;;5008848;28;19928;-85
2022/07/10 08:03:34;;;;;;;;;;;17.80;99.90;;;;;;4971252;28;19939;-87
2022/07/10 08:06:01;;;;;;;;;;;17.80;99.90;;;;;;4987598;28;19933;-87
2022/07/10 08:08:26;;;;;;;;;;;18.00;99.90;;;;;;4981590;28;19937;-84
2022/07/10 08:10:52;;;;;;;;;;;18.10;99.90;;;;;;4991771;28;20196;-84
2022/07/10 08:13:18;;;;;;;;;;;18.10;99.90;;;;;;4986430;28;20699;-85
2022/07/10 08:15:43;;;;;;;;;;;18.30;99.90;;;;;;4979993;28;19933;-86
2022/07/10 08:18:09;;;;;;;;;;;18.40;99.90;;;;;;4998149;28;20032;-85
2022/07/10 08:20:35;;;;;;;;;;;18.40;99.90;;;;;;4983965;28;20414;-87
2022/07/10 08:23:01;;;;;;;;;;;18.50;99.90;;;;;;5001541;28;19935;-84
2022/07/10 08:25:27;;;;;;;;;;;18.70;99.90;;;;;;5010184;28;19982;-85
2022/07/10 08:27:53;;;;;;;;;;;18.70;99.90;;;;;;5004179;28;19929;-84
2022/07/10 08:30:19;;;;;;;;;;;18.70;99.90;;;;;;5010111;28;19976;-84
2022/07/10 08:32:45;;;;;;;;;;;18.50;99.90;;;;;;4998095;28;19928;-83
2022/07/10 08:35:11;;;;;;;;;;;18.50;99.90;;;;;;4967508;28;19929;-89
2022/07/10 08:37:43;;;;;;;;;;;18.40;99.90;;;;;;4992908;28;23144;-87
2022/07/10 08:40:09;;;;;;;;;;;18.20;99.90;;;;;;5002642;28;20034;-85
2022/07/10 08:42:35;;;;;;;;;;;18.00;99.90;;;;;;4975980;28;19936;-83
2022/07/10 08:45:01;;;;;;;;;;;17.80;99.90;;;;;;5006939;28;19929;-84
2022/07/10 08:47:30;;;;;;;;;;;17.50;99.90;;;;;;5006476;28;19972;-85
2022/07/10 08:49:56;;;;;;;;;;;17.50;99.90;;;;;;5005836;28;19933;-85
2022/07/10 08:52:27;;;;;;;;;;;17.30;99.90;;;;;;5007913;28;19929;-85
2022/07/10 08:54:53;;;;;;;;;;;17.30;99.90;;;;;;4995847;28;19929;-85
2022/07/10 08:57:19;;;;;;;;;;;17.30;99.90;;;;;;5005291;28;20370;-87
2022/07/10 08:59:48;;;;;;;;;;;17.40;99.90;;;;;;4998267;28;19935;-87
2022/07/10 09:02:14;;;;;;;;;;;17.30;99.90;;;;;;4971992;28;19933;-85
2022/07/10 09:04:40;;;;;;;;;;;17.10;99.90;;;;;;5006351;28;19944;-85
2022/07/10 09:07:05;;;;;;;;;;;17.10;99.90;;;;;;5006475;28;20862;-86
2022/07/10 09:09:34;;;;;;;;;;;16.90;99.90;;;;;;4981824;28;19929;-85
2022/07/10 09:12:01;;;;;;;;;;;16.90;99.90;;;;;;4982852;28;19929;-84
2022/07/10 09:14:29;;;;;;;;;;;16.50;99.90;;;;;;4999783;28;20328;-85
2022/07/10 09:16:55;;;;;;;;;;;16.60;99.90;;;;;;5007484;28;19929;-84
2022/07/10 09:19:22;;;;;;;;;;;16.60;99.90;;;;;;4982458;28;19979;-85
2022/07/10 09:21:49;;;;;;;;;;;16.60;99.90;;;;;;5001498;28;19929;-83
2022/07/10 09:24:19;;;;;;;;;;;16.50;99.90;;;;;;4988728;28;19939;-83
2022/07/10 09:26:57;;;;;;;;;;;16.60;99.90;;;;;;4983063;28;19992;-86
2022/07/10 09:29:23;;;;;;;;;;;16.90;99.90;;;;;;4980222;28;19935;-87
2022/07/10 09:31:49;;;;;;;;;;;16.80;99.90;;;;;;4997835;28;19929;-86
2022/07/10 09:34:15;;;;;;;;;;;16.80;99.90;;;;;;5001827;28;19936;-86
2022/07/10 09:36:41;;;;;;;;;;;16.90;99.90;;;;;;4996459;28;19968;-86
2022/07/10 09:39:06;;;;;;;;;;;16.80;99.90;;;;;;4977777;28;19933;-86
2022/07/10 09:41:32;;;;;;;;;;;17.00;99.90;;;;;;4995534;28;19933;-86
2022/07/10 09:44:05;;;;;;;;;;;17.10;99.90;;;;;;4981397;28;21025;-86
2022/07/10 09:46:31;;;;;;;;;;;17.40;99.90;;;;;;5004645;28;19938;-85
2022/07/10 09:49:04;;;;;;;;;;;17.30;99.90;;;;;;4984016;28;19929;-84
2022/07/10 09:51:32;;;;;;;;;;;17.40;99.90;;;;;;5008040;28;19925;-85
2022/07/10 09:53:59;;;;;;;;;;;17.50;99.90;;;;;;4987076;28;19936;-84
2022/07/10 09:56:26;;;;;;;;;;;17.70;99.90;;;;;;5001855;28;19960;-86
2022/07/10 09:58:52;;;;;;;;;;;17.70;99.90;;;;;;4978860;28;20405;-86
2022/07/10 10:01:18;;;;;;;;;;;17.70;99.90;;;;;;5014315;28;19929;-84
2022/07/10 10:03:45;;;;;;;;;;;17.80;99.90;;;;;;4990106;28;19936;-86
2022/07/10 10:06:11;;;;;;;;;;;17.70;99.90;;;;;;4988942;28;19936;-85
2022/07/10 10:08:48;;;;;;;;;;;17.80;99.90;;;;;;4984135;28;19948;-86
2022/07/10 10:11:16;;;;;;;;;;;17.60;99.90;;;;;;4974532;28;19983;-83
2022/07/10 10:13:42;;;;;;;;;;;17.50;99.90;;;;;;4991307;28;19933;-86
2022/07/10 10:16:09;;;;;;;;;;;17.20;99.90;;;;;;4989265;28;19936;-88
2022/07/10 10:18:36;;;;;;;;;;;17.40;99.90;;;;;;4994391;28;19929;-86
2022/07/10 10:21:04;;;;;;;;;;;17.50;99.90;;;;;;4996404;28;19974;-85
2022/07/10 10:23:30;;;;;;;;;;;17.50;99.90;;;;;;5000162;28;20371;-85
2022/07/10 10:25:56;;;;;;;;;;;17.50;99.90;;;;;;4979743;28;19999;-86
2022/07/10 10:28:23;;;;;;;;;;;17.50;99.90;;;;;;4998479;28;20207;-85
2022/07/10 10:30:51;;;;;;;;;;;17.50;99.90;;;;;;5002007;28;19929;-86
2022/07/10 10:33:32;;;;;;;;;;;17.70;99.90;;;;;;4998967;28;20066;-85
2022/07/10 10:35:58;;;;;;;;;;;17.30;99.90;;;;;;5007735;28;19931;-84
2022/07/10 10:38:24;;;;;;;;;;;17.60;99.90;;;;;;5003182;28;19932;-84
2022/07/10 10:40:50;;;;;;;;;;;17.70;99.90;;;;;;4981504;28;19968;-86
2022/07/10 10:43:23;;;;;;;;;;;17.80;99.90;;;;;;4997423;28;20494;-84
2022/07/10 10:45:49;;;;;;;;;;;18.20;99.90;;;;;;4996346;28;19936;-84
2022/07/10 10:48:16;;;;;;;;;;;18.10;99.90;;;;;;4983730;28;19933;-84
2022/07/10 10:50:42;;;;;;;;;;;18.20;99.90;;;;;;4982028;28;19932;-87
2022/07/10 10:53:15;;;;;;;;;;;18.40;99.90;;;;;;5000522;28;19939;-85
2022/07/10 10:55:59;;;;;;;;;;;18.40;99.90;;;;;;5003486;28;19929;-85
2022/07/10 10:58:37;;;;;;;;;;;18.20;99.90;;;;;;4996229;28;19929;-86
2022/07/10 11:01:24;;;;;;;;;;;17.80;99.90;;;;;;4966901;28;19925;-84
2022/07/10 11:04:08;;;;;;;;;;;17.80;99.90;;;;;;4996940;28;20596;-85
2022/07/10 11:06:40;;;;;;;;;;;17.50;99.90;;;;;;4998079;28;19933;-86
2022/07/10 11:09:22;;;;;;;;;;;17.50;99.90;;;;;;4996849;28;19929;-84
2022/07/10 11:11:57;;;;;;;;;;;17.50;99.90;;;;;;5000579;28;19929;-86
2022/07/10 11:14:27;;;;;;;;;;;17.60;99.90;;;;;;4999914;28;19964;-85
2022/07/10 11:16:53;;;;;;;;;;;17.80;99.90;;;;;;4997648;28;19932;-87
2022/07/10 11:19:21;;;;;;;;;;;17.70;99.90;;;;;;4998302;28;19928;-84
2022/07/10 11:21:47;;;;;;;;;;;17.90;99.90;;;;;;5001398;28;19936;-83
2022/07/10 11:24:22;;;;;;;;;;;18.10;99.90;;;;;;4998305;28;20408;-86
2022/07/10 11:26:58;;;;;;;;;;;17.90;99.90;;;;;;4989808;28;19936;-85
2022/07/10 11:29:24;;;;;;;;;;;18.10;99.90;;;;;;4960722;28;19930;-85
2022/07/10 11:31:53;;;;;;;;;;;18.20;99.90;;;;;;4956946;28;19929;-85
2022/07/10 11:34:19;;;;;;;;;;;18.30;99.90;;;;;;4956540;28;20021;-86
2022/07/10 11:36:50;;;;;;;;;;;18.40;99.90;;;;;;4957113;28;20767;-87
2022/07/10 11:39:16;;;;;;;;;;;18.50;99.90;;;;;;4940036;28;20541;-86
2022/07/10 11:41:42;;;;;;;;;;;19.00;99.90;;;;;;4953569;28;19941;-84
2022/07/10 11:44:16;;;;;;;;;;;19.40;99.90;;;;;;4956315;28;19969;-86
2022/07/10 11:46:44;;;;;;;;;;;19.40;99.90;;;;;;4948306;28;20056;-87
2022/07/10 11:49:10;;;;;;;;;;;19.10;99.90;;;;;;4969719;28;20028;-85
2022/07/10 11:51:37;;;;;;;;;;;19.00;99.90;;;;;;4976105;28;19965;-86
2022/07/10 11:54:03;;;;;;;;;;;18.90;99.90;;;;;;4985362;28;19930;-85
2022/07/10 11:56:30;;;;;;;;;;;19.50;99.90;;;;;;4976292;28;19934;-85
2022/07/10 11:58:56;;;;;;;;;;;19.60;99.90;;;;;;4947785;28;21916;-86
2022/07/10 12:01:22;;;;;;;;;;;20.00;99.90;;;;;;4970272;28;19926;-85
2022/07/10 12:03:58;;;;;;;;;;;19.90;99.90;;;;;;4969033;28;20182;-85
2022/07/10 12:06:24;;;;;;;;;;;19.80;99.90;;;;;;4947909;28;20076;-85
2022/07/10 12:08:51;;;;;;;;;;;19.50;99.90;;;;;;4969026;28;20728;-85
2022/07/10 12:11:18;;;;;;;;;;;19.60;99.90;;;;;;4973836;28;19937;-85
2022/07/10 12:13:45;;;;;;;;;;;19.40;99.90;;;;;;4962690;28;19980;-86
2022/07/10 12:16:11;;;;;;;;;;;18.80;99.90;;;;;;4969808;28;20017;-86
2022/07/10 12:18:37;;;;;;;;;;;18.60;99.90;;;;;;4968928;28;19930;-85
2022/07/10 12:21:03;;;;;;;;;;;18.70;99.90;;;;;;4971723;28;19940;-86
2022/07/10 12:23:30;;;;;;;;;;;19.00;99.90;;;;;;4972658;28;19936;-84
2022/07/10 12:25:56;;;;;;;;;;;19.30;99.90;;;;;;4951425;28;19972;-85
2022/07/10 12:28:22;;;;;;;;;;;19.40;99.90;;;;;;4993826;28;19932;-86
2022/07/10 12:30:51;;;;;;;;;;;19.50;99.90;;;;;;5017663;28;19933;-85
2022/07/10 12:33:21;;;;;;;;;;;19.20;99.90;;;;;;5013949;28;19936;-85
2022/07/10 12:35:56;;;;;;;;;;;19.10;99.90;;;;;;4978445;28;19929;-86
2022/07/10 12:38:22;;;;;;;;;;;18.90;99.90;;;;;;5012833;28;19956;-85
2022/07/10 12:40:48;;;;;;;;;;;18.80;99.90;;;;;;5010337;28;19928;-85
2022/07/10 12:43:25;;;;;;;;;;;18.30;99.90;;;;;;5015190;28;20334;-87
2022/07/10 12:46:09;;;;;;;;;;;18.30;99.90;;;;;;5013385;28;20435;-85
2022/07/10 12:48:35;;;;;;;;;;;18.50;99.90;;;;;;5007835;28;19933;-86
2022/07/10 12:51:20;;;;;;;;;;;18.40;99.90;;;;;;4990404;28;19929;-86
2022/07/10 12:53:46;;;;;;;;;;;18.80;99.90;;;;;;4981646;28;19940;-86
2022/07/10 12:56:26;;;;;;;;;;;19.00;99.90;;;;;;4996119;28;19929;-86
2022/07/10 12:58:52;;;;;;;;;;;19.30;99.90;;;;;;5009459;28;20677;-84
2022/07/10 13:01:17;;;;;;;;;;;19.20;99.90;;;;;;5012375;28;19929;-84
2022/07/10 13:03:43;;;;;;;;;;;19.00;99.90;;;;;;5011000;28;19928;-83
2022/07/10 13:06:25;;;;;;;;;;;18.80;99.90;;;;;;5014736;28;19933;-83
2022/07/10 13:08:50;;;;;;;;;;;18.60;99.90;;;;;;5011271;28;19991;-85
2022/07/10 13:11:16;;;;;;;;;;;18.70;99.90;;;;;;5017373;28;20441;-83
2022/07/10 13:13:42;;;;;;;;;;;18.70;99.90;;;;;;5000373;28;20449;-85
2022/07/10 13:16:08;;;;;;;;;;;18.20;99.90;;;;;;4994051;28;20370;-86
2022/07/10 13:18:34;;;;;;;;;;;18.50;99.90;;;;;;5010797;28;20015;-83
2022/07/10 13:21:02;;;;;;;;;;;18.50;99.90;;;;;;5027816;28;19933;-83
2022/07/10 13:23:28;;;;;;;;;;;18.50;99.90;;;;;;5013861;28;19959;-82
2022/07/10 13:25:54;;;;;;;;;;;18.50;99.90;;;;;;5012316;28;19982;-84
2022/07/10 13:28:20;;;;;;;;;;;18.60;99.90;;;;;;5006814;28;20390;-85
2022/07/10 13:30:46;;;;;;;;;;;18.90;99.90;;;;;;4991169;28;19935;-84
2022/07/10 13:33:12;;;;;;;;;;;18.90;99.90;;;;;;4997738;28;19928;-85
2022/07/10 13:35:37;;;;;;;;;;;19.00;99.90;;;;;;5028113;28;19929;-83
2022/07/10 13:38:03;;;;;;;;;;;19.10;99.90;;;;;;4994579;28;19929;-86
2022/07/10 13:40:30;;;;;;;;;;;19.10;99.90;;;;;;5008492;28;19990;-84
2022/07/10 13:42:59;;;;;;;;;;;19.10;99.90;;;;;;5011936;28;19987;-84
2022/07/10 13:45:26;;;;;;;;;;;19.20;99.90;;;;;;5009945;28;19933;-81
2022/07/10 13:47:53;;;;;;;;;;;19.30;99.90;;;;;;5014447;28;19929;-85
2022/07/10 13:50:20;;;;;;;;;;;19.50;99.90;;;;;;5016180;28;20280;-85
2022/07/10 13:52:45;;;;;;;;;;;19.30;99.90;;;;;;4982803;28;20398;-83
2022/07/10 13:55:12;;;;;;;;;;;19.40;99.90;;;;;;5017141;28;19936;-83
2022/07/10 13:57:38;;;;;;;;;;;19.50;99.90;;;;;;5015232;28;20465;-84
2022/07/10 14:00:04;;;;;;;;;;;19.60;99.90;;;;;;5014216;28;19990;-88
2022/07/10 14:02:29;;;;;;;;;;;19.70;99.90;;;;;;5016894;28;20520;-84
2022/07/10 14:04:55;;;;;;;;;;;19.90;99.90;;;;;;5016405;28;20160;-85
2022/07/10 14:07:21;;;;;;;;;;;20.00;99.90;;;;;;5014611;28;19928;-83
2022/07/10 14:09:46;;;;;;;;;;;20.20;99.90;;;;;;5011296;28;19928;-84
2022/07/10 14:12:12;;;;;;;;;;;20.10;99.90;;;;;;5010096;28;19975;-86
2022/07/10 14:14:38;;;;;;;;;;;20.10;99.90;;;;;;4988001;28;19925;-84
2022/07/10 14:17:03;;;;;;;;;;;20.00;99.90;;;;;;5011073;28;19968;-86
2022/07/10 14:19:29;;;;;;;;;;;19.90;99.90;;;;;;4989487;28;19929;-85
2022/07/10 14:21:55;;;;;;;;;;;19.90;99.90;;;;;;5017593;28;20853;-85
2022/07/10 14:24:20;;;;;;;;;;;19.50;99.90;;;;;;5010115;28;19937;-86
2022/07/10 14:26:46;;;;;;;;;;;19.50;99.90;;;;;;5014177;28;20048;-83